sensor_id;sensor_type;location;lat;lon;timestamp;temperature;humidity
36800;DHT22;22752;51.960;5.886;2024-01-30T00:01:23;7.50;99.90
36800;DHT22;22752;51.960;5.886;2024-01-30T00:03:48;7.40;99.90
36800;DHT22;22752;51.960;5.886;2024-01-30T00:06:18;7.30;99.90
36800;DHT22;22752;51.960;5.886;2024-01-30T00:08:44;7.30;99.90
36800;DHT22;22752;51.960;5.886;2024-01-30T00:11:12;7.30;99.90
36800;DHT22;22752;51.960;5.886;2024-01-30T00:13:37;7.20;99.90
36800;DHT22;22752;51.960;5.886;2024-01-30T00:16:03;7.10;99.90
36800;DHT22;22752;51.960;5.886;2024-01-30T00:18:29;7.10;99.90
36800;DHT22;22752;51.960;5.886;2024-01-30T00:20:55;7.10;99.90
36800;DHT22;22752;51.960;5.886;2024-01-30T00:23:20;7.00;99.90
36800;DHT22;22752;51.960;5.886;2024-01-30T00:25:46;7.00;99.90
36800;DHT22;22752;51.960;5.886;2024-01-30T00:28:11;6.90;99.90
36800;DHT22;22752;51.960;5.886;2024-01-30T00:30:37;6.90;99.90
36800;DHT22;22752;51.960;5.886;2024-01-30T00:33:03;6.90;99.90
36800;DHT22;22752;51.960;5.886;2024-01-30T00:35:28;6.90;99.90
36800;DHT22;22752;51.960;5.886;2024-01-30T00:37:54;6.90;99.90
36800;DHT22;22752;51.960;5.886;2024-01-30T00:40:20;6.80;99.90
36800;DHT22;22752;51.960;5.886;2024-01-30T00:42:46;6.80;99.90
36800;DHT22;22752;51.960;5.886;2024-01-30T00:45:13;6.90;99.90
36800;DHT22;22752;51.960;5.886;2024-01-30T00:47:39;6.90;99.90
36800;DHT22;22752;51.960;5.886;2024-01-30T00:50:05;6.90;99.90
36800;DHT22;22752;51.960;5.886;2024-01-30T00:52:30;6.90;99.90
36800;DHT22;22752;51.960;5.886;2024-01-30T00:54:56;6.90;99.90
36800;DHT22;22752;51.960;5.886;2024-01-30T00:57:22;6.90;99.90
36800;DHT22;22752;51.960;5.886;2024-01-30T00:59:47;6.90;99.90
36800;DHT22;22752;51.960;5.886;2024-01-30T01:02:13;6.80;99.90
36800;DHT22;22752;51.960;5.886;2024-01-30T01:04:40;6.90;99.90
36800;DHT22;22752;51.960;5.886;2024-01-30T01:07:06;6.90;99.90
36800;DHT22;22752;51.960;5.886;2024-01-30T01:09:31;6.80;99.90
36800;DHT22;22752;51.960;5.886;2024-01-30T01:11:57;6.80;99.90
36800;DHT22;22752;51.960;5.886;2024-01-30T01:14:22;6.80;99.90
36800;DHT22;22752;51.960;5.886;2024-01-30T01:16:48;6.70;99.90
36800;DHT22;22752;51.960;5.886;2024-01-30T01:19:14;6.70;99.90
36800;DHT22;22752;51.960;5.886;2024-01-30T01:21:39;6.70;99.90
36800;DHT22;22752;51.960;5.886;2024-01-30T01:24:05;6.80;99.90
36800;DHT22;22752;51.960;5.886;2024-01-30T01:26:31;6.70;99.90
36800;DHT22;22752;51.960;5.886;2024-01-30T01:28:56;6.70;99.90
36800;DHT22;22752;51.960;5.886;2024-01-30T01:31:22;6.70;99.90
36800;DHT22;22752;51.960;5.886;2024-01-30T01:33:50;6.70;99.90
36800;DHT22;22752;51.960;5.886;2024-01-30T01:36:15;6.70;99.90
36800;DHT22;22752;51.960;5.886;2024-01-30T01:38:41;6.70;99.90
36800;DHT22;22752;51.960;5.886;2024-01-30T01:41:07;6.70;99.90
36800;DHT22;22752;51.960;5.886;2024-01-30T01:43:32;6.70;99.90
36800;DHT22;22752;51.960;5.886;2024-01-30T01:45:58;6.70;99.90
36800;DHT22;22752;51.960;5.886;2024-01-30T01:48:24;6.70;99.90
36800;DHT22;22752;51.960;5.886;2024-01-30T01:50:50;6.70;99.90
36800;DHT22;22752;51.960;5.886;2024-01-30T01:53:17;6.70;99.90
36800;DHT22;22752;51.960;5.886;2024-01-30T01:55:42;6.70;99.90
36800;DHT22;22752;51.960;5.886;2024-01-30T01:58:09;6.70;99.90
36800;DHT22;22752;51.960;5.886;2024-01-30T02:00:36;6.70;99.90
36800;DHT22;22752;51.960;5.886;2024-01-30T02:03:05;6.70;99.90
36800;DHT22;22752;51.960;5.886;2024-01-30T02:05:32;6.80;99.90
36800;DHT22;22752;51.960;5.886;2024-01-30T02:07:58;6.90;99.90
36800;DHT22;22752;51.960;5.886;2024-01-30T02:10:24;7.00;99.90
36800;DHT22;22752;51.960;5.886;2024-01-30T02:12:49;7.00;99.90
36800;DHT22;22752;51.960;5.886;2024-01-30T02:15:15;7.10;99.90
36800;DHT22;22752;51.960;5.886;2024-01-30T02:17:41;7.10;99.90
36800;DHT22;22752;51.960;5.886;2024-01-30T02:20:07;7.20;99.90
36800;DHT22;22752;51.960;5.886;2024-01-30T02:22:34;7.20;99.90
36800;DHT22;22752;51.960;5.886;2024-01-30T02:25:00;7.20;99.90
36800;DHT22;22752;51.960;5.886;2024-01-30T02:27:26;7.20;99.90
36800;DHT22;22752;51.960;5.886;2024-01-30T02:29:52;7.10;99.90
36800;DHT22;22752;51.960;5.886;2024-01-30T02:32:17;7.00;99.90
36800;DHT22;22752;51.960;5.886;2024-01-30T02:34:43;7.00;99.90
36800;DHT22;22752;51.960;5.886;2024-01-30T02:37:09;6.80;99.90
36800;DHT22;22752;51.960;5.886;2024-01-30T02:39:34;6.70;99.90
36800;DHT22;22752;51.960;5.886;2024-01-30T02:42:00;6.70;99.90
36800;DHT22;22752;51.960;5.886;2024-01-30T02:44:26;6.60;99.90
36800;DHT22;22752;51.960;5.886;2024-01-30T02:46:51;6.50;99.90
36800;DHT22;22752;51.960;5.886;2024-01-30T02:49:19;6.50;99.90
36800;DHT22;22752;51.960;5.886;2024-01-30T02:51:45;6.40;99.90
36800;DHT22;22752;51.960;5.886;2024-01-30T02:54:10;6.30;99.90
36800;DHT22;22752;51.960;5.886;2024-01-30T02:56:36;6.30;99.90
36800;DHT22;22752;51.960;5.886;2024-01-30T02:59:02;6.20;99.90
36800;DHT22;22752;51.960;5.886;2024-01-30T03:01:27;6.20;99.90
36800;DHT22;22752;51.960;5.886;2024-01-30T03:03:53;6.10;99.90
36800;DHT22;22752;51.960;5.886;2024-01-30T03:06:18;6.10;99.90
36800;DHT22;22752;51.960;5.886;2024-01-30T03:08:45;6.10;99.90
36800;DHT22;22752;51.960;5.886;2024-01-30T03:11:11;6.10;99.90
36800;DHT22;22752;51.960;5.886;2024-01-30T03:13:36;6.00;99.90
36800;DHT22;22752;51.960;5.886;2024-01-30T03:16:02;6.00;99.90
36800;DHT22;22752;51.960;5.886;2024-01-30T03:18:28;5.90;99.90
36800;DHT22;22752;51.960;5.886;2024-01-30T03:20:53;5.90;99.90
36800;DHT22;22752;51.960;5.886;2024-01-30T03:23:19;5.80;99.90
36800;DHT22;22752;51.960;5.886;2024-01-30T03:25:45;5.80;99.90
36800;DHT22;22752;51.960;5.886;2024-01-30T03:28:10;5.70;99.90
36800;DHT22;22752;51.960;5.886;2024-01-30T03:30:36;5.70;99.90
36800;DHT22;22752;51.960;5.886;2024-01-30T03:33:02;5.70;99.90
36800;DHT22;22752;51.960;5.886;2024-01-30T03:35:28;5.60;99.90
36800;DHT22;22752;51.960;5.886;2024-01-30T03:37:53;5.60;99.90
36800;DHT22;22752;51.960;5.886;2024-01-30T03:40:19;5.60;99.90
36800;DHT22;22752;51.960;5.886;2024-01-30T03:42:45;5.60;99.90
36800;DHT22;22752;51.960;5.886;2024-01-30T03:45:10;5.50;99.90
36800;DHT22;22752;51.960;5.886;2024-01-30T03:47:36;5.50;99.90
36800;DHT22;22752;51.960;5.886;2024-01-30T03:50:02;5.60;99.90
36800;DHT22;22752;51.960;5.886;2024-01-30T03:52:28;5.50;99.90
36800;DHT22;22752;51.960;5.886;2024-01-30T03:54:53;5.50;99.90
36800;DHT22;22752;51.960;5.886;2024-01-30T03:57:19;5.60;99.90
36800;DHT22;22752;51.960;5.886;2024-01-30T03:59:44;5.50;99.90
36800;DHT22;22752;51.960;5.886;2024-01-30T04:02:11;5.50;99.90
36800;DHT22;22752;51.960;5.886;2024-01-30T04:04:37;5.50;99.90
36800;DHT22;22752;51.960;5.886;2024-01-30T04:07:03;5.40;99.90
36800;DHT22;22752;51.960;5.886;2024-01-30T04:09:28;5.40;99.90
36800;DHT22;22752;51.960;5.886;2024-01-30T04:11:54;5.40;99.90
36800;DHT22;22752;51.960;5.886;2024-01-30T04:14:20;5.40;99.90
36800;DHT22;22752;51.960;5.886;2024-01-30T04:16:45;5.40;99.90
36800;DHT22;22752;51.960;5.886;2024-01-30T04:19:11;5.50;99.90
36800;DHT22;22752;51.960;5.886;2024-01-30T04:21:37;5.50;99.90
36800;DHT22;22752;51.960;5.886;2024-01-30T04:24:02;5.40;99.90
36800;DHT22;22752;51.960;5.886;2024-01-30T04:26:28;5.50;99.90
36800;DHT22;22752;51.960;5.886;2024-01-30T04:28:54;5.50;99.90
36800;DHT22;22752;51.960;5.886;2024-01-30T04:31:19;5.50;99.90
36800;DHT22;22752;51.960;5.886;2024-01-30T04:33:45;5.50;99.90
36800;DHT22;22752;51.960;5.886;2024-01-30T04:36:11;5.50;99.90
36800;DHT22;22752;51.960;5.886;2024-01-30T04:38:37;5.40;99.90
36800;DHT22;22752;51.960;5.886;2024-01-30T04:41:04;5.50;99.90
36800;DHT22;22752;51.960;5.886;2024-01-30T04:43:29;5.40;99.90
36800;DHT22;22752;51.960;5.886;2024-01-30T04:45:56;5.40;99.90
36800;DHT22;22752;51.960;5.886;2024-01-30T04:48:21;5.50;99.90
36800;DHT22;22752;51.960;5.886;2024-01-30T04:50:47;5.40;99.90
36800;DHT22;22752;51.960;5.886;2024-01-30T04:53:12;5.50;99.90
36800;DHT22;22752;51.960;5.886;2024-01-30T04:55:38;5.60;99.90
36800;DHT22;22752;51.960;5.886;2024-01-30T04:58:04;5.70;99.90
36800;DHT22;22752;51.960;5.886;2024-01-30T05:00:29;6.00;99.90
36800;DHT22;22752;51.960;5.886;2024-01-30T05:02:56;6.10;99.90
36800;DHT22;22752;51.960;5.886;2024-01-30T05:05:21;6.30;99.90
36800;DHT22;22752;51.960;5.886;2024-01-30T05:07:47;6.40;99.90
36800;DHT22;22752;51.960;5.886;2024-01-30T05:10:13;6.50;99.90
36800;DHT22;22752;51.960;5.886;2024-01-30T05:12:39;6.60;99.90
36800;DHT22;22752;51.960;5.886;2024-01-30T05:15:05;6.70;99.90
36800;DHT22;22752;51.960;5.886;2024-01-30T05:17:31;6.80;99.90
36800;DHT22;22752;51.960;5.886;2024-01-30T05:19:57;6.90;99.90
36800;DHT22;22752;51.960;5.886;2024-01-30T05:22:23;7.00;99.90
36800;DHT22;22752;51.960;5.886;2024-01-30T05:24:48;7.10;99.90
36800;DHT22;22752;51.960;5.886;2024-01-30T05:27:14;7.20;99.90
36800;DHT22;22752;51.960;5.886;2024-01-30T05:29:40;7.20;99.90
36800;DHT22;22752;51.960;5.886;2024-01-30T05:32:06;7.20;99.90
36800;DHT22;22752;51.960;5.886;2024-01-30T05:34:32;7.20;99.90
36800;DHT22;22752;51.960;5.886;2024-01-30T05:36:58;7.30;99.90
36800;DHT22;22752;51.960;5.886;2024-01-30T05:39:24;7.30;99.90
36800;DHT22;22752;51.960;5.886;2024-01-30T05:41:49;7.40;99.90
36800;DHT22;22752;51.960;5.886;2024-01-30T05:44:15;7.40;99.90
36800;DHT22;22752;51.960;5.886;2024-01-30T05:46:41;7.40;99.90
36800;DHT22;22752;51.960;5.886;2024-01-30T05:49:07;7.50;99.90
36800;DHT22;22752;51.960;5.886;2024-01-30T05:51:32;7.50;99.90
36800;DHT22;22752;51.960;5.886;2024-01-30T07:16:45;7.30;99.90
36800;DHT22;22752;51.960;5.886;2024-01-30T07:19:11;7.40;99.90
36800;DHT22;22752;51.960;5.886;2024-01-30T07:40:10;7.90;99.90
36800;DHT22;22752;51.960;5.886;2024-01-30T07:42:36;7.90;99.90
36800;DHT22;22752;51.960;5.886;2024-01-30T07:45:01;8.00;99.90
36800;DHT22;22752;51.960;5.886;2024-01-30T07:47:27;8.10;99.90
36800;DHT22;22752;51.960;5.886;2024-01-30T07:49:53;8.30;99.90
36800;DHT22;22752;51.960;5.886;2024-01-30T07:52:19;8.40;99.90
36800;DHT22;22752;51.960;5.886;2024-01-30T07:54:48;8.50;99.90
36800;DHT22;22752;51.960;5.886;2024-01-30T07:57:14;8.60;99.90
36800;DHT22;22752;51.960;5.886;2024-01-30T07:59:42;8.70;99.90
36800;DHT22;22752;51.960;5.886;2024-01-30T08:02:09;8.80;99.90
36800;DHT22;22752;51.960;5.886;2024-01-30T08:04:35;8.90;99.90
36800;DHT22;22752;51.960;5.886;2024-01-30T08:07:01;9.00;99.90
36800;DHT22;22752;51.960;5.886;2024-01-30T08:09:26;9.10;99.90
36800;DHT22;22752;51.960;5.886;2024-01-30T08:11:52;9.10;99.90
36800;DHT22;22752;51.960;5.886;2024-01-30T08:14:18;9.20;99.90
36800;DHT22;22752;51.960;5.886;2024-01-30T08:16:44;9.30;99.90
36800;DHT22;22752;51.960;5.886;2024-01-30T08:19:09;9.40;99.90
36800;DHT22;22752;51.960;5.886;2024-01-30T08:21:35;9.50;99.90
36800;DHT22;22752;51.960;5.886;2024-01-30T08:24:04;9.50;99.90
36800;DHT22;22752;51.960;5.886;2024-01-30T08:26:33;9.60;99.90
36800;DHT22;22752;51.960;5.886;2024-01-30T08:28:59;9.60;99.90
36800;DHT22;22752;51.960;5.886;2024-01-30T08:31:25;9.60;99.90
36800;DHT22;22752;51.960;5.886;2024-01-30T08:33:51;9.70;99.90
36800;DHT22;22752;51.960;5.886;2024-01-30T08:36:17;9.80;99.90
36800;DHT22;22752;51.960;5.886;2024-01-30T11:35:43;11.20;99.90
36800;DHT22;22752;51.960;5.886;2024-01-30T11:38:11;11.30;99.90
36800;DHT22;22752;51.960;5.886;2024-01-30T11:40:37;11.40;99.90
36800;DHT22;22752;51.960;5.886;2024-01-30T11:43:05;11.50;99.90
36800;DHT22;22752;51.960;5.886;2024-01-30T11:45:31;11.70;99.90
36800;DHT22;22752;51.960;5.886;2024-01-30T11:47:58;11.80;99.90
36800;DHT22;22752;51.960;5.886;2024-01-30T11:50:25;11.90;99.90
36800;DHT22;22752;51.960;5.886;2024-01-30T11:52:51;12.00;99.90
36800;DHT22;22752;51.960;5.886;2024-01-30T11:55:17;12.10;99.90
36800;DHT22;22752;51.960;5.886;2024-01-30T11:57:44;12.30;99.90
36800;DHT22;22752;51.960;5.886;2024-01-30T12:00:17;12.40;99.90
36800;DHT22;22752;51.960;5.886;2024-01-30T12:02:44;12.50;99.90
36800;DHT22;22752;51.960;5.886;2024-01-30T12:05:14;12.60;99.90
36800;DHT22;22752;51.960;5.886;2024-01-30T12:07:39;12.70;99.90
36800;DHT22;22752;51.960;5.886;2024-01-30T12:10:05;12.60;99.90
36800;DHT22;22752;51.960;5.886;2024-01-30T12:12:33;12.70;99.90
36800;DHT22;22752;51.960;5.886;2024-01-30T12:14:59;12.60;99.90
36800;DHT22;22752;51.960;5.886;2024-01-30T12:20:12;12.60;99.90
36800;DHT22;22752;51.960;5.886;2024-01-30T12:22:40;12.60;99.90
36800;DHT22;22752;51.960;5.886;2024-01-30T12:25:10;12.60;99.90
36800;DHT22;22752;51.960;5.886;2024-01-30T12:27:36;12.60;99.90
36800;DHT22;22752;51.960;5.886;2024-01-30T12:30:08;12.50;99.90
36800;DHT22;22752;51.960;5.886;2024-01-30T12:32:40;12.50;99.90
36800;DHT22;22752;51.960;5.886;2024-01-30T12:35:10;12.40;99.90
36800;DHT22;22752;51.960;5.886;2024-01-30T12:37:36;12.40;99.90
36800;DHT22;22752;51.960;5.886;2024-01-30T12:40:02;12.40;99.90
36800;DHT22;22752;51.960;5.886;2024-01-30T12:42:29;12.50;99.90
36800;DHT22;22752;51.960;5.886;2024-01-30T12:44:57;12.50;99.90
36800;DHT22;22752;51.960;5.886;2024-01-30T12:47:23;12.50;99.90
36800;DHT22;22752;51.960;5.886;2024-01-30T12:49:49;12.40;99.90
36800;DHT22;22752;51.960;5.886;2024-01-30T12:52:19;12.30;99.90
36800;DHT22;22752;51.960;5.886;2024-01-30T12:54:45;12.10;99.90
36800;DHT22;22752;51.960;5.886;2024-01-30T12:57:11;12.10;99.90
36800;DHT22;22752;51.960;5.886;2024-01-30T12:59:36;12.10;99.90
36800;DHT22;22752;51.960;5.886;2024-01-30T13:02:02;12.00;99.90
36800;DHT22;22752;51.960;5.886;2024-01-30T13:04:29;12.00;99.90
36800;DHT22;22752;51.960;5.886;2024-01-30T13:06:54;12.10;99.90
36800;DHT22;22752;51.960;5.886;2024-01-30T13:09:20;12.10;99.90
36800;DHT22;22752;51.960;5.886;2024-01-30T13:11:46;12.10;99.90
36800;DHT22;22752;51.960;5.886;2024-01-30T13:14:12;12.10;99.90
36800;DHT22;22752;51.960;5.886;2024-01-30T13:16:37;12.10;99.90
36800;DHT22;22752;51.960;5.886;2024-01-30T13:19:03;12.10;99.90
36800;DHT22;22752;51.960;5.886;2024-01-30T13:21:29;12.10;99.90
36800;DHT22;22752;51.960;5.886;2024-01-30T13:23:55;12.00;99.90
36800;DHT22;22752;51.960;5.886;2024-01-30T13:26:20;12.10;99.90
36800;DHT22;22752;51.960;5.886;2024-01-30T13:28:46;12.00;99.90
36800;DHT22;22752;51.960;5.886;2024-01-30T13:31:13;12.00;99.90
36800;DHT22;22752;51.960;5.886;2024-01-30T13:33:40;12.00;99.90
36800;DHT22;22752;51.960;5.886;2024-01-30T13:36:10;12.00;99.90
36800;DHT22;22752;51.960;5.886;2024-01-30T13:38:36;12.00;99.90
36800;DHT22;22752;51.960;5.886;2024-01-30T13:41:01;12.00;99.90
36800;DHT22;22752;51.960;5.886;2024-01-30T13:43:28;11.90;99.90
36800;DHT22;22752;51.960;5.886;2024-01-30T13:45:53;11.80;99.90
36800;DHT22;22752;51.960;5.886;2024-01-30T13:48:19;11.70;99.90
36800;DHT22;22752;51.960;5.886;2024-01-30T13:50:45;11.70;99.90
36800;DHT22;22752;51.960;5.886;2024-01-30T13:53:11;11.50;99.90
36800;DHT22;22752;51.960;5.886;2024-01-30T13:55:37;11.40;99.90
36800;DHT22;22752;51.960;5.886;2024-01-30T13:58:04;11.30;99.90
36800;DHT22;22752;51.960;5.886;2024-01-30T14:00:30;11.20;99.90
36800;DHT22;22752;51.960;5.886;2024-01-30T14:02:56;11.10;99.90
36800;DHT22;22752;51.960;5.886;2024-01-30T14:05:23;11.00;99.90
36800;DHT22;22752;51.960;5.886;2024-01-30T14:07:50;10.90;99.90
36800;DHT22;22752;51.960;5.886;2024-01-30T14:10:16;10.90;99.90
36800;DHT22;22752;51.960;5.886;2024-01-30T14:12:43;10.70;99.90
36800;DHT22;22752;51.960;5.886;2024-01-30T14:15:13;10.70;99.90
36800;DHT22;22752;51.960;5.886;2024-01-30T14:17:40;10.70;99.90
36800;DHT22;22752;51.960;5.886;2024-01-30T14:20:06;10.70;99.90
36800;DHT22;22752;51.960;5.886;2024-01-30T14:22:33;10.80;99.90
36800;DHT22;22752;51.960;5.886;2024-01-30T14:25:00;10.80;99.90
36800;DHT22;22752;51.960;5.886;2024-01-30T14:27:25;10.80;99.90
36800;DHT22;22752;51.960;5.886;2024-01-30T14:29:51;10.80;99.90
36800;DHT22;22752;51.960;5.886;2024-01-30T14:32:17;10.90;99.90
36800;DHT22;22752;51.960;5.886;2024-01-30T14:34:42;10.90;99.90
36800;DHT22;22752;51.960;5.886;2024-01-30T14:37:08;10.80;99.90
36800;DHT22;22752;51.960;5.886;2024-01-30T14:39:34;10.80;99.90
36800;DHT22;22752;51.960;5.886;2024-01-30T14:42:03;10.80;99.90
36800;DHT22;22752;51.960;5.886;2024-01-30T14:44:29;10.80;99.90
36800;DHT22;22752;51.960;5.886;2024-01-30T14:46:56;10.80;99.90
36800;DHT22;22752;51.960;5.886;2024-01-30T14:49:21;10.70;99.90
36800;DHT22;22752;51.960;5.886;2024-01-30T14:51:47;10.70;99.90
36800;DHT22;22752;51.960;5.886;2024-01-30T14:54:13;10.60;99.90
36800;DHT22;22752;51.960;5.886;2024-01-30T14:56:39;10.60;99.90
36800;DHT22;22752;51.960;5.886;2024-01-30T14:59:04;10.60;99.90
36800;DHT22;22752;51.960;5.886;2024-01-30T15:01:30;10.60;99.90
36800;DHT22;22752;51.960;5.886;2024-01-30T15:03:56;10.50;99.90
36800;DHT22;22752;51.960;5.886;2024-01-30T15:06:22;10.50;99.90
36800;DHT22;22752;51.960;5.886;2024-01-30T15:08:50;10.50;99.90
36800;DHT22;22752;51.960;5.886;2024-01-30T15:11:15;10.50;99.90
36800;DHT22;22752;51.960;5.886;2024-01-30T15:13:41;10.50;99.90
36800;DHT22;22752;51.960;5.886;2024-01-30T15:16:07;10.50;99.90
36800;DHT22;22752;51.960;5.886;2024-01-30T15:18:33;10.50;99.90
36800;DHT22;22752;51.960;5.886;2024-01-30T15:20:58;10.40;99.90
36800;DHT22;22752;51.960;5.886;2024-01-30T15:23:24;10.40;99.90
36800;DHT22;22752;51.960;5.886;2024-01-30T15:25:50;10.40;99.90
36800;DHT22;22752;51.960;5.886;2024-01-30T15:28:15;10.40;99.90
36800;DHT22;22752;51.960;5.886;2024-01-30T15:30:42;10.30;99.90
36800;DHT22;22752;51.960;5.886;2024-01-30T15:33:12;10.30;99.90
36800;DHT22;22752;51.960;5.886;2024-01-30T15:35:37;10.30;99.90
36800;DHT22;22752;51.960;5.886;2024-01-30T15:38:04;10.20;99.90
36800;DHT22;22752;51.960;5.886;2024-01-30T15:40:34;10.30;99.90
36800;DHT22;22752;51.960;5.886;2024-01-30T15:43:00;10.20;99.90
36800;DHT22;22752;51.960;5.886;2024-01-30T15:45:25;10.20;99.90
36800;DHT22;22752;51.960;5.886;2024-01-30T15:47:51;10.20;99.90
36800;DHT22;22752;51.960;5.886;2024-01-30T15:50:17;10.20;99.90
36800;DHT22;22752;51.960;5.886;2024-01-30T15:52:43;10.10;99.90
36800;DHT22;22752;51.960;5.886;2024-01-30T15:55:08;10.10;99.90
36800;DHT22;22752;51.960;5.886;2024-01-30T15:57:34;10.10;99.90
36800;DHT22;22752;51.960;5.886;2024-01-30T16:00:00;10.00;99.90
36800;DHT22;22752;51.960;5.886;2024-01-30T16:02:26;10.00;99.90
36800;DHT22;22752;51.960;5.886;2024-01-30T16:04:52;9.90;99.90
36800;DHT22;22752;51.960;5.886;2024-01-30T16:07:18;9.90;99.90
36800;DHT22;22752;51.960;5.886;2024-01-30T16:09:44;9.80;99.90
36800;DHT22;22752;51.960;5.886;2024-01-30T16:12:10;9.70;99.90
36800;DHT22;22752;51.960;5.886;2024-01-30T16:14:36;9.70;99.90
36800;DHT22;22752;51.960;5.886;2024-01-30T16:17:01;9.60;99.90
36800;DHT22;22752;51.960;5.886;2024-01-30T16:19:27;9.50;99.90
36800;DHT22;22752;51.960;5.886;2024-01-30T16:21:53;9.50;99.90
36800;DHT22;22752;51.960;5.886;2024-01-30T16:24:19;9.40;99.90
36800;DHT22;22752;51.960;5.886;2024-01-30T16:26:48;9.40;99.90
36800;DHT22;22752;51.960;5.886;2024-01-30T16:29:14;9.50;99.90
36800;DHT22;22752;51.960;5.886;2024-01-30T16:31:40;9.40;99.90
36800;DHT22;22752;51.960;5.886;2024-01-30T16:34:05;9.40;99.90
36800;DHT22;22752;51.960;5.886;2024-01-30T16:36:31;9.40;99.90
36800;DHT22;22752;51.960;5.886;2024-01-30T16:38:56;9.40;99.90
36800;DHT22;22752;51.960;5.886;2024-01-30T16:41:24;9.40;99.90
36800;DHT22;22752;51.960;5.886;2024-01-30T16:43:50;9.30;99.90
36800;DHT22;22752;51.960;5.886;2024-01-30T16:46:16;9.30;99.90
36800;DHT22;22752;51.960;5.886;2024-01-30T16:48:42;9.30;99.90
36800;DHT22;22752;51.960;5.886;2024-01-30T16:51:08;9.30;99.90
36800;DHT22;22752;51.960;5.886;2024-01-30T16:53:33;9.20;99.90
36800;DHT22;22752;51.960;5.886;2024-01-30T16:55:59;9.20;99.90
36800;DHT22;22752;51.960;5.886;2024-01-30T16:58:25;9.20;99.90
36800;DHT22;22752;51.960;5.886;2024-01-30T17:00:50;9.20;99.90
36800;DHT22;22752;51.960;5.886;2024-01-30T17:03:16;9.20;99.90
36800;DHT22;22752;51.960;5.886;2024-01-30T17:05:42;9.20;99.90
36800;DHT22;22752;51.960;5.886;2024-01-30T17:08:08;9.10;99.90
36800;DHT22;22752;51.960;5.886;2024-01-30T17:10:34;9.10;99.90
36800;DHT22;22752;51.960;5.886;2024-01-30T17:13:00;9.10;99.90
36800;DHT22;22752;51.960;5.886;2024-01-30T17:15:26;9.10;99.90
36800;DHT22;22752;51.960;5.886;2024-01-30T17:17:52;9.10;99.90
36800;DHT22;22752;51.960;5.886;2024-01-30T17:20:19;9.10;99.90
36800;DHT22;22752;51.960;5.886;2024-01-30T17:22:45;9.00;99.90
36800;DHT22;22752;51.960;5.886;2024-01-30T17:25:11;9.10;99.90
36800;DHT22;22752;51.960;5.886;2024-01-30T17:27:36;9.00;99.90
36800;DHT22;22752;51.960;5.886;2024-01-30T17:30:03;9.00;99.90
36800;DHT22;22752;51.960;5.886;2024-01-30T17:32:30;9.00;99.90
36800;DHT22;22752;51.960;5.886;2024-01-30T17:34:56;9.00;99.90
36800;DHT22;22752;51.960;5.886;2024-01-30T17:37:22;9.00;99.90
36800;DHT22;22752;51.960;5.886;2024-01-30T17:39:48;9.00;99.90
36800;DHT22;22752;51.960;5.886;2024-01-30T17:42:14;9.00;99.90
36800;DHT22;22752;51.960;5.886;2024-01-30T17:44:40;9.00;99.90
36800;DHT22;22752;51.960;5.886;2024-01-30T17:47:06;9.00;99.90
36800;DHT22;22752;51.960;5.886;2024-01-30T17:49:35;9.00;99.90
36800;DHT22;22752;51.960;5.886;2024-01-30T17:52:01;9.00;99.90
36800;DHT22;22752;51.960;5.886;2024-01-30T17:54:27;9.00;99.90
36800;DHT22;22752;51.960;5.886;2024-01-30T17:56:52;9.00;99.90
36800;DHT22;22752;51.960;5.886;2024-01-30T17:59:18;9.00;99.90
36800;DHT22;22752;51.960;5.886;2024-01-30T18:01:50;9.00;99.90
36800;DHT22;22752;51.960;5.886;2024-01-30T18:04:16;9.00;99.90
36800;DHT22;22752;51.960;5.886;2024-01-30T18:06:54;8.90;99.90
36800;DHT22;22752;51.960;5.886;2024-01-30T18:09:24;8.90;99.90
36800;DHT22;22752;51.960;5.886;2024-01-30T18:11:51;8.90;99.90
36800;DHT22;22752;51.960;5.886;2024-01-30T18:14:17;8.90;99.90
36800;DHT22;22752;51.960;5.886;2024-01-30T18:16:43;8.90;99.90
36800;DHT22;22752;51.960;5.886;2024-01-30T18:19:09;8.90;99.90
36800;DHT22;22752;51.960;5.886;2024-01-30T18:21:35;8.90;99.90
36800;DHT22;22752;51.960;5.886;2024-01-30T18:24:01;8.80;99.90
36800;DHT22;22752;51.960;5.886;2024-01-30T18:26:26;8.80;99.90
36800;DHT22;22752;51.960;5.886;2024-01-30T18:28:53;8.80;99.90
36800;DHT22;22752;51.960;5.886;2024-01-30T18:31:24;8.80;99.90
36800;DHT22;22752;51.960;5.886;2024-01-30T18:33:51;8.80;99.90
36800;DHT22;22752;51.960;5.886;2024-01-30T18:36:18;8.80;99.90
36800;DHT22;22752;51.960;5.886;2024-01-30T18:38:50;8.80;99.90
36800;DHT22;22752;51.960;5.886;2024-01-30T18:41:17;8.80;99.90
36800;DHT22;22752;51.960;5.886;2024-01-30T18:43:43;8.70;99.90
36800;DHT22;22752;51.960;5.886;2024-01-30T18:46:09;8.70;99.90
36800;DHT22;22752;51.960;5.886;2024-01-30T18:48:39;8.70;99.90
36800;DHT22;22752;51.960;5.886;2024-01-30T18:51:05;8.70;99.90
36800;DHT22;22752;51.960;5.886;2024-01-30T18:53:32;8.70;99.90
36800;DHT22;22752;51.960;5.886;2024-01-30T18:55:58;8.70;99.90
36800;DHT22;22752;51.960;5.886;2024-01-30T18:58:24;8.70;99.90
36800;DHT22;22752;51.960;5.886;2024-01-30T19:00:49;8.70;99.90
36800;DHT22;22752;51.960;5.886;2024-01-30T19:03:16;8.70;99.90
36800;DHT22;22752;51.960;5.886;2024-01-30T19:05:43;8.70;99.90
36800;DHT22;22752;51.960;5.886;2024-01-30T19:08:08;8.60;99.90
36800;DHT22;22752;51.960;5.886;2024-01-30T19:10:34;8.70;99.90
36800;DHT22;22752;51.960;5.886;2024-01-30T19:13:01;8.70;99.90
36800;DHT22;22752;51.960;5.886;2024-01-30T19:15:27;8.70;99.90
36800;DHT22;22752;51.960;5.886;2024-01-30T19:17:52;8.70;99.90
36800;DHT22;22752;51.960;5.886;2024-01-30T19:20:18;8.70;99.90
36800;DHT22;22752;51.960;5.886;2024-01-30T19:22:46;8.70;99.90
36800;DHT22;22752;51.960;5.886;2024-01-30T19:25:12;8.70;99.90
36800;DHT22;22752;51.960;5.886;2024-01-30T19:27:37;8.70;99.90
36800;DHT22;22752;51.960;5.886;2024-01-30T19:30:03;8.80;99.90
36800;DHT22;22752;51.960;5.886;2024-01-30T19:32:29;8.70;99.90
36800;DHT22;22752;51.960;5.886;2024-01-30T19:34:55;8.70;99.90
36800;DHT22;22752;51.960;5.886;2024-01-30T19:37:21;8.70;99.90
36800;DHT22;22752;51.960;5.886;2024-01-30T19:39:51;8.70;99.90
36800;DHT22;22752;51.960;5.886;2024-01-30T19:42:20;8.70;99.90
36800;DHT22;22752;51.960;5.886;2024-01-30T19:44:46;8.70;99.90
36800;DHT22;22752;51.960;5.886;2024-01-30T19:47:11;8.70;99.90
36800;DHT22;22752;51.960;5.886;2024-01-30T19:49:37;8.80;99.90
36800;DHT22;22752;51.960;5.886;2024-01-30T19:52:07;8.70;99.90
36800;DHT22;22752;51.960;5.886;2024-01-30T19:54:34;8.70;99.90
36800;DHT22;22752;51.960;5.886;2024-01-30T19:57:00;8.70;99.90
36800;DHT22;22752;51.960;5.886;2024-01-30T19:59:27;8.70;99.90
36800;DHT22;22752;51.960;5.886;2024-01-30T20:01:53;8.70;99.90
36800;DHT22;22752;51.960;5.886;2024-01-30T20:04:18;8.60;99.90
36800;DHT22;22752;51.960;5.886;2024-01-30T20:06:44;8.60;99.90
36800;DHT22;22752;51.960;5.886;2024-01-30T20:09:10;8.60;99.90
36800;DHT22;22752;51.960;5.886;2024-01-30T20:11:36;8.50;99.90
36800;DHT22;22752;51.960;5.886;2024-01-30T20:14:02;8.50;99.90
36800;DHT22;22752;51.960;5.886;2024-01-30T20:16:41;8.40;99.90